OPRN/ISB METAR and TAF weather

Enter ICAO airport designator
Station Type Date Time Source
OPRN METAR 2019/02/18 03:30 UTC NOAA

OPRN 180330Z 31003KT 3000 RA OVC050 12/09 Q1012 TEMPO 3000 RMK A2991


Station Type Date Time Source
OPRN Decoded METAR 2019/02/18 03:30 UTC NOAA

Islamabad Airport, Pakistan (OPRN) 33-37N 073-06E 508M
Feb 17, 2019 - 10:30 PM EST / 2019.02.18 0330 UTC
Wind: from the NW (310 degrees) at 3 MPH (3 KT):0
Visibility: 1 mile(s):0
Sky conditions: overcast
Weather: rain
Temperature: 53 F (12 C)
Dew Point: 48 F (9 C)
Relative Humidity: 81%
Pressure (altimeter): 29.88 in. Hg (1012 hPa)
ob: OPRN 180330Z 31003KT 3000 RA OVC050 12/09 Q1012 TEMPO 3000 RMK A2991
cycle: 3

Station Type Date Time Source
OPRN TAF 2019/02/17 18:05 UTC NOAA

TAF OPRN 170930Z 1718/1824 27010KT 4000 HZ FEW040 BKB100 BKN180
BECMG 1714/1716 05010KT 3000 -RA SCT040 BKN080 BKN160
TEMPO 1718/1802 2000 RA SCT010 BKN030 OVC070
BECMG 1704/1706 13010KT 4000 HZ SCT040 BKN100
TEMPO 1708/1715 13010G25KT 2000 TSRA FEW010 FEW020TCU/CB BKN030 OVC080


Example: see airport list